sensor_id;sensor_type;location;lat;lon;timestamp;P1;durP1;ratioP1;P2;durP2;ratioP2
77148;SDS011;66122;47.130;16.844;2024-01-30T00:05:06;0.20;;;0.10;;
77148;SDS011;66122;47.130;16.844;2024-01-30T00:15:09;0.20;;;0.10;;
77148;SDS011;66122;47.130;16.844;2024-01-30T00:25:12;0.20;;;0.10;;
77148;SDS011;66122;47.130;16.844;2024-01-30T00:35:15;0.30;;;0.10;;
77148;SDS011;66122;47.130;16.844;2024-01-30T00:45:18;0.22;;;0.10;;
77148;SDS011;66122;47.130;16.844;2024-01-30T00:55:20;0.20;;;0.10;;
77148;SDS011;66122;47.130;16.844;2024-01-30T01:05:23;0.20;;;0.10;;
77148;SDS011;66122;47.130;16.844;2024-01-30T01:15:26;0.20;;;0.10;;
77148;SDS011;66122;47.130;16.844;2024-01-30T01:25:31;0.20;;;0.10;;
77148;SDS011;66122;47.130;16.844;2024-01-30T01:35:34;0.20;;;0.10;;
77148;SDS011;66122;47.130;16.844;2024-01-30T01:45:36;0.20;;;0.10;;
77148;SDS011;66122;47.130;16.844;2024-01-30T01:55:39;0.20;;;0.10;;
77148;SDS011;66122;47.130;16.844;2024-01-30T02:05:42;0.27;;;0.10;;
77148;SDS011;66122;47.130;16.844;2024-01-30T02:15:48;0.20;;;0.10;;
77148;SDS011;66122;47.130;16.844;2024-01-30T02:25:52;0.20;;;0.10;;
77148;SDS011;66122;47.130;16.844;2024-01-30T02:35:55;0.20;;;0.10;;
77148;SDS011;66122;47.130;16.844;2024-01-30T02:45:58;0.20;;;0.10;;
77148;SDS011;66122;47.130;16.844;2024-01-30T02:56:03;0.10;;;0.10;;
77148;SDS011;66122;47.130;16.844;2024-01-30T03:06:06;0.20;;;0.10;;
77148;SDS011;66122;47.130;16.844;2024-01-30T03:16:09;0.20;;;0.10;;
77148;SDS011;66122;47.130;16.844;2024-01-30T03:26:12;0.30;;;0.10;;
77148;SDS011;66122;47.130;16.844;2024-01-30T03:36:15;0.20;;;0.10;;
77148;SDS011;66122;47.130;16.844;2024-01-30T03:46:18;0.20;;;0.10;;
77148;SDS011;66122;47.130;16.844;2024-01-30T03:56:21;0.20;;;0.10;;
77148;SDS011;66122;47.130;16.844;2024-01-30T04:06:23;0.25;;;0.10;;
77148;SDS011;66122;47.130;16.844;2024-01-30T04:16:26;0.20;;;0.10;;
77148;SDS011;66122;47.130;16.844;2024-01-30T04:26:28;0.10;;;0.10;;
77148;SDS011;66122;47.130;16.844;2024-01-30T04:36:31;0.20;;;0.10;;
77148;SDS011;66122;47.130;16.844;2024-01-30T04:46:34;0.20;;;0.10;;
77148;SDS011;66122;47.130;16.844;2024-01-30T04:56:36;0.20;;;0.10;;
77148;SDS011;66122;47.130;16.844;2024-01-30T05:06:39;0.20;;;0.10;;
77148;SDS011;66122;47.130;16.844;2024-01-30T05:16:41;0.20;;;0.10;;
77148;SDS011;66122;47.130;16.844;2024-01-30T05:26:48;0.20;;;0.10;;
77148;SDS011;66122;47.130;16.844;2024-01-30T05:36:54;0.20;;;0.10;;
77148;SDS011;66122;47.130;16.844;2024-01-30T05:46:57;0.20;;;0.10;;
77148;SDS011;66122;47.130;16.844;2024-01-30T05:56:59;0.20;;;0.10;;
77148;SDS011;66122;47.130;16.844;2024-01-30T06:07:02;0.30;;;0.10;;
77148;SDS011;66122;47.130;16.844;2024-01-30T06:17:05;0.20;;;0.10;;
77148;SDS011;66122;47.130;16.844;2024-01-30T06:27:08;0.20;;;0.10;;
77148;SDS011;66122;47.130;16.844;2024-01-30T06:37:11;0.20;;;0.10;;
77148;SDS011;66122;47.130;16.844;2024-01-30T06:47:14;0.20;;;0.10;;
77148;SDS011;66122;47.130;16.844;2024-01-30T06:57:16;0.20;;;0.10;;
77148;SDS011;66122;47.130;16.844;2024-01-30T07:07:19;0.30;;;0.10;;
77148;SDS011;66122;47.130;16.844;2024-01-30T07:17:22;0.20;;;0.10;;
77148;SDS011;66122;47.130;16.844;2024-01-30T07:27:24;0.20;;;0.10;;
77148;SDS011;66122;47.130;16.844;2024-01-30T07:37:28;0.20;;;0.10;;
77148;SDS011;66122;47.130;16.844;2024-01-30T07:47:31;0.20;;;0.10;;
77148;SDS011;66122;47.130;16.844;2024-01-30T07:57:34;0.20;;;0.10;;
77148;SDS011;66122;47.130;16.844;2024-01-30T08:07:36;0.20;;;0.10;;
77148;SDS011;66122;47.130;16.844;2024-01-30T08:17:39;0.20;;;0.10;;
77148;SDS011;66122;47.130;16.844;2024-01-30T08:27:42;0.20;;;0.10;;
77148;SDS011;66122;47.130;16.844;2024-01-30T08:37:48;0.20;;;0.10;;
77148;SDS011;66122;47.130;16.844;2024-01-30T08:47:50;0.30;;;0.20;;
77148;SDS011;66122;47.130;16.844;2024-01-30T08:57:53;0.30;;;0.20;;
77148;SDS011;66122;47.130;16.844;2024-01-30T09:07:56;0.40;;;0.25;;
77148;SDS011;66122;47.130;16.844;2024-01-30T09:17:59;0.40;;;0.20;;
77148;SDS011;66122;47.130;16.844;2024-01-30T09:28:01;0.30;;;0.20;;
77148;SDS011;66122;47.130;16.844;2024-01-30T09:38:06;0.30;;;0.10;;
77148;SDS011;66122;47.130;16.844;2024-01-30T09:48:09;0.40;;;0.20;;
77148;SDS011;66122;47.130;16.844;2024-01-30T09:58:12;0.30;;;0.20;;
77148;SDS011;66122;47.130;16.844;2024-01-30T10:08:15;0.47;;;0.30;;
77148;SDS011;66122;47.130;16.844;2024-01-30T10:18:24;0.50;;;0.40;;
77148;SDS011;66122;47.130;16.844;2024-01-30T10:28:27;0.47;;;0.37;;
77148;SDS011;66122;47.130;16.844;2024-01-30T10:38:32;0.40;;;0.20;;
77148;SDS011;66122;47.130;16.844;2024-01-30T10:48:36;0.40;;;0.22;;
77148;SDS011;66122;47.130;16.844;2024-01-30T10:58:45;0.30;;;0.20;;
77148;SDS011;66122;47.130;16.844;2024-01-30T11:09:03;0.30;;;0.20;;
77148;SDS011;66122;47.130;16.844;2024-01-30T11:19:12;0.40;;;0.30;;
77148;SDS011;66122;47.130;16.844;2024-01-30T11:29:15;0.47;;;0.30;;
77148;SDS011;66122;47.130;16.844;2024-01-30T11:39:19;0.50;;;0.33;;
77148;SDS011;66122;47.130;16.844;2024-01-30T11:49:24;0.50;;;0.30;;
77148;SDS011;66122;47.130;16.844;2024-01-30T11:59:27;0.40;;;0.30;;
77148;SDS011;66122;47.130;16.844;2024-01-30T12:09:30;0.60;;;0.47;;
77148;SDS011;66122;47.130;16.844;2024-01-30T12:19:33;0.60;;;0.40;;
77148;SDS011;66122;47.130;16.844;2024-01-30T12:29:35;0.60;;;0.50;;
77148;SDS011;66122;47.130;16.844;2024-01-30T12:39:42;0.60;;;0.50;;
77148;SDS011;66122;47.130;16.844;2024-01-30T12:49:50;0.60;;;0.43;;
77148;SDS011;66122;47.130;16.844;2024-01-30T12:59:56;0.40;;;0.20;;
77148;SDS011;66122;47.130;16.844;2024-01-30T13:09:59;0.50;;;0.40;;
77148;SDS011;66122;47.130;16.844;2024-01-30T13:20:07;0.43;;;0.23;;
77148;SDS011;66122;47.130;16.844;2024-01-30T13:30:13;0.60;;;0.50;;
77148;SDS011;66122;47.130;16.844;2024-01-30T13:40:16;0.50;;;0.33;;
77148;SDS011;66122;47.130;16.844;2024-01-30T13:50:19;0.30;;;0.20;;
77148;SDS011;66122;47.130;16.844;2024-01-30T14:00:22;0.38;;;0.20;;
77148;SDS011;66122;47.130;16.844;2024-01-30T14:10:26;0.40;;;0.30;;
77148;SDS011;66122;47.130;16.844;2024-01-30T14:20:28;0.33;;;0.20;;
77148;SDS011;66122;47.130;16.844;2024-01-30T14:30:31;0.30;;;0.20;;
77148;SDS011;66122;47.130;16.844;2024-01-30T14:40:34;0.45;;;0.30;;
77148;SDS011;66122;47.130;16.844;2024-01-30T14:50:37;0.37;;;0.20;;
77148;SDS011;66122;47.130;16.844;2024-01-30T15:00:40;0.30;;;0.20;;
77148;SDS011;66122;47.130;16.844;2024-01-30T15:10:42;0.40;;;0.20;;
77148;SDS011;66122;47.130;16.844;2024-01-30T15:20:46;0.20;;;0.10;;
77148;SDS011;66122;47.130;16.844;2024-01-30T15:30:48;0.20;;;0.10;;
77148;SDS011;66122;47.130;16.844;2024-01-30T15:40:51;0.32;;;0.20;;
77148;SDS011;66122;47.130;16.844;2024-01-30T15:50:54;0.30;;;0.20;;
77148;SDS011;66122;47.130;16.844;2024-01-30T16:00:57;0.30;;;0.10;;
77148;SDS011;66122;47.130;16.844;2024-01-30T16:11:00;0.20;;;0.10;;
77148;SDS011;66122;47.130;16.844;2024-01-30T16:21:03;0.22;;;0.10;;
77148;SDS011;66122;47.130;16.844;2024-01-30T16:31:06;0.30;;;0.10;;
77148;SDS011;66122;47.130;16.844;2024-01-30T16:41:08;0.20;;;0.10;;
77148;SDS011;66122;47.130;16.844;2024-01-30T16:51:11;0.30;;;0.10;;
77148;SDS011;66122;47.130;16.844;2024-01-30T17:01:14;0.20;;;0.10;;
77148;SDS011;66122;47.130;16.844;2024-01-30T17:11:17;0.30;;;0.20;;
77148;SDS011;66122;47.130;16.844;2024-01-30T17:21:21;0.30;;;0.20;;
77148;SDS011;66122;47.130;16.844;2024-01-30T17:31:24;0.30;;;0.20;;
77148;SDS011;66122;47.130;16.844;2024-01-30T17:41:27;0.20;;;0.10;;
77148;SDS011;66122;47.130;16.844;2024-01-30T17:51:30;0.20;;;0.10;;
77148;SDS011;66122;47.130;16.844;2024-01-30T18:01:33;0.20;;;0.10;;
77148;SDS011;66122;47.130;16.844;2024-01-30T18:11:36;0.23;;;0.10;;
77148;SDS011;66122;47.130;16.844;2024-01-30T18:21:39;0.20;;;0.10;;
77148;SDS011;66122;47.130;16.844;2024-01-30T18:31:42;0.20;;;0.10;;
77148;SDS011;66122;47.130;16.844;2024-01-30T18:41:47;0.20;;;0.10;;
77148;SDS011;66122;47.130;16.844;2024-01-30T18:51:49;0.30;;;0.20;;
77148;SDS011;66122;47.130;16.844;2024-01-30T19:01:55;0.22;;;0.10;;
77148;SDS011;66122;47.130;16.844;2024-01-30T19:11:58;0.20;;;0.10;;
77148;SDS011;66122;47.130;16.844;2024-01-30T19:22:01;0.20;;;0.10;;
77148;SDS011;66122;47.130;16.844;2024-01-30T19:32:03;0.20;;;0.10;;
77148;SDS011;66122;47.130;16.844;2024-01-30T19:42:06;0.20;;;0.10;;
77148;SDS011;66122;47.130;16.844;2024-01-30T19:52:09;0.20;;;0.10;;
77148;SDS011;66122;47.130;16.844;2024-01-30T20:02:12;0.20;;;0.10;;
77148;SDS011;66122;47.130;16.844;2024-01-30T20:12:18;0.30;;;0.10;;
77148;SDS011;66122;47.130;16.844;2024-01-30T20:22:20;0.20;;;0.10;;
77148;SDS011;66122;47.130;16.844;2024-01-30T20:32:23;0.20;;;0.10;;
77148;SDS011;66122;47.130;16.844;2024-01-30T20:42:26;0.20;;;0.10;;
77148;SDS011;66122;47.130;16.844;2024-01-30T20:52:29;0.20;;;0.10;;
77148;SDS011;66122;47.130;16.844;2024-01-30T21:02:32;0.20;;;0.10;;
77148;SDS011;66122;47.130;16.844;2024-01-30T21:12:35;0.23;;;0.10;;
77148;SDS011;66122;47.130;16.844;2024-01-30T21:22:37;0.20;;;0.10;;
77148;SDS011;66122;47.130;16.844;2024-01-30T21:32:40;0.20;;;0.10;;
77148;SDS011;66122;47.130;16.844;2024-01-30T21:42:43;0.20;;;0.10;;
77148;SDS011;66122;47.130;16.844;2024-01-30T21:52:47;0.30;;;0.10;;
77148;SDS011;66122;47.130;16.844;2024-01-30T22:02:50;0.20;;;0.10;;
77148;SDS011;66122;47.130;16.844;2024-01-30T22:12:53;0.30;;;0.10;;
77148;SDS011;66122;47.130;16.844;2024-01-30T22:22:56;0.28;;;0.10;;
77148;SDS011;66122;47.130;16.844;2024-01-30T22:32:59;0.30;;;0.20;;
77148;SDS011;66122;47.130;16.844;2024-01-30T22:43:04;0.20;;;0.10;;
77148;SDS011;66122;47.130;16.844;2024-01-30T22:53:10;0.20;;;0.10;;
77148;SDS011;66122;47.130;16.844;2024-01-30T23:03:13;0.20;;;0.10;;
77148;SDS011;66122;47.130;16.844;2024-01-30T23:13:15;0.20;;;0.10;;
77148;SDS011;66122;47.130;16.844;2024-01-30T23:23:18;0.20;;;0.10;;
77148;SDS011;66122;47.130;16.844;2024-01-30T23:33:21;0.30;;;0.10;;
77148;SDS011;66122;47.130;16.844;2024-01-30T23:43:23;0.20;;;0.10;;
77148;SDS011;66122;47.130;16.844;2024-01-30T23:53:31;0.23;;;0.10;;
